Knapp Lake, Indiana
Current Conditions -  °F | °C
As of 12:55 PM on Monday 24 Nov 2014 (Local Time) from KASW Reporting Station
Overcast Overcast  
Wind Chill: 23°   Ceiling: 1800
Heat Index: 36°   Visibility: 10mi
Dew Point: 32°   Wind: 25mph
Humidity: 87%   Direction: 250°WSW
Pressure: 29.38"   Gusts: 39mph
Location:  41.3616°N, 85.6019°W
Report Text: KASW 241755Z AUTO 25022G34KT 10SM BKN018 OVC024 02/00 A2938 RMK AO2
Loading
Personal Weather Stations






























Interactive Weather Map New forecast layout! Learn more

10-Day Weather Forecast

Advertisements
Track Severe Weather on mobile